Terminal Aerodrome Forecast
Issued by NWS Sioux Falls, SD

Home | Current Version | Previous Version | Graphics & Text | Print | Product List | Glossary On
Versions: 1 2 3 4 5 6 7 8 9 10 11 12 13 14 15 16 17 18
000
FTUS43 KFSD 241513 AAA
TAFHON
TAF AMD
KHON 241513Z 2415/2512 30008KT 4SM BR OVC007
      TEMPO 2415/2416 2SM BR OVC005
     FM241800 24007KT P6SM OVC012
     FM242000 20007KT P6SM SCT012 SCT200
     FM250000 18007KT P6SM SCT050 SCT120
     FM251000 VRB04KT P6SM BKN025=

USA.gov is the U.S. government's official web portal to all federal, state and local government web resources and services.